createdAt,value
2023-04-11T00:01:24.550Z,8.65
2023-04-11T00:03:26.249Z,8.65
2023-04-11T00:05:28.056Z,8.58
2023-04-11T00:07:29.647Z,8.51
2023-04-11T00:09:31.359Z,8.53
2023-04-11T00:11:33.115Z,8.45
2023-04-11T00:13:34.606Z,8.42
2023-04-11T00:15:36.282Z,8.34
2023-04-11T00:17:38.006Z,8.34
2023-04-11T00:19:39.583Z,8.26
2023-04-11T00:21:41.053Z,8.32
2023-04-11T00:23:42.544Z,8.36
2023-04-11T00:25:44.068Z,8.39
2023-04-11T00:27:45.682Z,8.31
2023-04-11T00:29:47.262Z,8.30
2023-04-11T00:31:48.824Z,8.37
2023-04-11T00:33:50.375Z,8.45
2023-04-11T00:35:52.610Z,8.55
2023-04-11T00:37:56.312Z,8.59
2023-04-11T00:39:57.911Z,8.57
2023-04-11T00:42:06.715Z,8.57
2023-04-11T00:44:08.715Z,8.46
2023-04-11T00:46:10.397Z,8.41
2023-04-11T00:48:11.963Z,8.34
2023-04-11T00:50:14.226Z,8.32
2023-04-11T00:52:16.073Z,8.38
2023-04-11T00:54:18.517Z,8.47
2023-04-11T00:56:20.040Z,8.46
2023-04-11T00:58:21.620Z,8.40
2023-04-11T01:00:23.333Z,8.43
2023-04-11T01:02:25.195Z,8.47
2023-04-11T01:04:26.775Z,8.53
2023-04-11T01:06:30.866Z,8.59
2023-04-11T01:08:32.339Z,8.55
2023-04-11T01:10:33.877Z,8.54
2023-04-11T01:12:35.547Z,8.36
2023-04-11T01:14:37.056Z,8.37
2023-04-11T01:16:38.593Z,8.45
2023-04-11T01:18:40.069Z,8.51
2023-04-11T01:20:41.626Z,8.50
2023-04-11T01:22:43.162Z,8.52
2023-04-11T01:24:44.605Z,8.44
2023-04-11T01:26:46.138Z,8.46
2023-04-11T01:28:47.657Z,8.46
2023-04-11T01:30:49.237Z,8.23
2023-04-11T01:32:50.942Z,8.32
2023-04-11T01:34:52.628Z,8.31
2023-04-11T01:36:54.416Z,8.25
2023-04-11T01:38:56.393Z,8.15
2023-04-11T01:40:58.032Z,8.15
2023-04-11T01:42:59.890Z,8.25
2023-04-11T01:45:01.585Z,8.16
2023-04-11T01:47:03.359Z,8.16
2023-04-11T01:49:04.963Z,8.21
2023-04-11T01:51:07.496Z,8.25
2023-04-11T01:53:08.970Z,8.34
2023-04-11T01:55:10.510Z,8.31
2023-04-11T01:57:12.004Z,8.10
2023-04-11T01:59:13.557Z,8.11
2023-04-11T02:01:17.635Z,8.13
2023-04-11T02:03:21.032Z,8.18
2023-04-11T02:05:23.810Z,8.15
2023-04-11T02:07:25.303Z,8.17
2023-04-11T02:09:26.784Z,8.18
2023-04-11T02:11:28.307Z,8.16
2023-04-11T02:13:29.798Z,8.14
2023-04-11T02:15:31.328Z,8.15
2023-04-11T02:17:32.873Z,8.20
2023-04-11T02:19:34.554Z,8.14
2023-04-11T02:21:36.158Z,8.12
2023-04-11T02:23:37.788Z,8.10
2023-04-11T02:25:39.376Z,8.10
2023-04-11T02:27:41.005Z,8.01
2023-04-11T02:29:42.489Z,7.98
2023-04-11T02:31:44.139Z,7.99
2023-04-11T02:33:45.677Z,7.93
2023-04-11T02:35:47.243Z,7.84
2023-04-11T02:37:48.770Z,7.94
2023-04-11T02:39:50.356Z,7.93
2023-04-11T02:41:51.812Z,7.87
2023-04-11T02:43:53.942Z,7.88
2023-04-11T02:46:05.547Z,7.83
2023-04-11T02:48:14.010Z,7.76
2023-04-11T02:50:15.623Z,7.83
2023-04-11T02:52:18.201Z,7.90
2023-04-11T02:54:19.667Z,7.90
2023-04-11T02:56:21.582Z,7.96
2023-04-11T02:58:26.025Z,8.04
2023-04-11T03:00:27.556Z,7.92
2023-04-11T03:02:30.519Z,7.95
2023-04-11T03:04:32.291Z,7.95
2023-04-11T03:06:33.858Z,7.99
2023-04-11T03:08:39.249Z,7.95
2023-04-11T03:10:40.871Z,7.92
2023-04-11T03:12:42.467Z,7.94
2023-04-11T03:14:44.007Z,8.05
2023-04-11T03:16:45.712Z,8.15
2023-04-11T03:18:47.206Z,8.23
2023-04-11T03:20:49.032Z,8.26
2023-04-11T03:22:50.581Z,8.15
2023-04-11T03:24:52.102Z,8.10
2023-04-11T03:26:53.709Z,8.02
2023-04-11T03:28:55.459Z,8.00
2023-04-11T03:30:57.274Z,8.03
2023-04-11T03:33:01.181Z,8.01
2023-04-11T03:35:02.825Z,8.03
2023-04-11T03:37:04.996Z,7.99
2023-04-11T03:39:06.487Z,7.82
2023-04-11T03:41:08.029Z,7.72
2023-04-11T03:43:09.533Z,7.78
2023-04-11T03:45:11.022Z,7.83
2023-04-11T03:47:12.538Z,7.87
2023-04-11T03:49:14.036Z,7.81
2023-04-11T03:51:15.588Z,7.82
2023-04-11T03:53:17.104Z,7.87
2023-04-11T03:55:18.664Z,7.89
2023-04-11T03:57:20.142Z,7.89
2023-04-11T03:59:21.776Z,7.89
2023-04-11T04:01:23.548Z,7.94
2023-04-11T04:03:25.226Z,7.90
2023-04-11T04:05:26.816Z,7.73
2023-04-11T04:07:28.486Z,7.73
2023-04-11T04:09:30.002Z,7.67
2023-04-11T04:11:31.550Z,7.57
2023-04-11T04:13:33.282Z,7.55
2023-04-11T04:15:34.867Z,7.52
2023-04-11T04:17:36.372Z,7.56
2023-04-11T04:19:37.909Z,7.48
2023-04-11T04:21:39.387Z,7.44
2023-04-11T04:23:52.939Z,7.41
2023-04-11T04:25:58.080Z,7.52
2023-04-11T04:28:01.029Z,7.63
2023-04-11T04:30:04.722Z,7.72
2023-04-11T04:32:11.344Z,7.66
2023-04-11T04:34:12.883Z,7.64
2023-04-11T04:36:17.984Z,7.52
2023-04-11T04:38:19.626Z,7.43
2023-04-11T04:40:21.460Z,7.38
2023-04-11T04:42:23.874Z,7.39
2023-04-11T04:44:25.651Z,7.34
2023-04-11T04:46:27.157Z,7.33
2023-04-11T04:48:28.603Z,7.42
2023-04-11T04:50:30.232Z,7.51
2023-04-11T04:52:31.788Z,7.56
2023-04-11T04:54:33.285Z,7.41
2023-04-11T04:56:34.925Z,7.29
2023-04-11T04:58:36.583Z,7.35
2023-04-11T05:00:38.061Z,7.45
2023-04-11T05:02:40.714Z,7.45
2023-04-11T05:04:42.598Z,7.56
2023-04-11T05:06:44.210Z,7.60
2023-04-11T05:08:46.504Z,7.59
2023-04-11T05:10:48.049Z,7.55
2023-04-11T05:12:49.580Z,7.63
2023-04-11T05:14:51.180Z,7.52
2023-04-11T05:16:52.797Z,7.43
2023-04-11T05:18:54.351Z,7.26
2023-04-11T05:20:56.012Z,7.41
2023-04-11T05:22:57.532Z,7.44
2023-04-11T05:24:59.034Z,7.40
2023-04-11T05:27:00.674Z,7.30
2023-04-11T05:29:02.192Z,7.32
2023-04-11T05:31:03.896Z,7.28
2023-04-11T05:33:05.608Z,7.45
2023-04-11T05:35:07.413Z,7.48
2023-04-11T05:37:09.245Z,7.45
2023-04-11T05:39:11.039Z,7.51
2023-04-11T05:41:12.815Z,7.61
2023-04-11T05:43:15.291Z,7.62
2023-04-11T05:45:16.813Z,7.56
2023-04-11T05:47:18.319Z,7.63
2023-04-11T05:49:19.902Z,7.69
2023-04-11T05:51:21.421Z,7.72
2023-04-11T05:53:22.919Z,7.69
2023-04-11T05:55:24.413Z,7.66
2023-04-11T05:57:25.867Z,7.73
2023-04-11T05:59:28.953Z,7.93
2023-04-11T06:01:30.529Z,8.03
2023-04-11T06:03:32.248Z,8.14
2023-04-11T06:05:34.866Z,8.04
2023-04-11T06:07:36.293Z,8.19
2023-04-11T06:09:39.297Z,8.23
2023-04-11T06:11:40.772Z,8.11
2023-04-11T06:13:42.307Z,8.19
2023-04-11T06:15:43.821Z,8.27
2023-04-11T06:17:45.553Z,8.35
2023-04-11T06:19:47.057Z,8.42
2023-04-11T06:21:48.538Z,8.63
2023-04-11T06:23:50.199Z,8.40
2023-04-11T06:25:51.798Z,8.46
2023-04-11T06:27:53.292Z,8.51
2023-04-11T06:29:54.785Z,8.54
2023-04-11T06:31:56.267Z,8.45
2023-04-11T06:33:58.083Z,8.47
2023-04-11T06:35:59.829Z,8.40
2023-04-11T06:38:01.318Z,8.46
2023-04-11T06:40:05.366Z,8.57
2023-04-11T06:42:06.990Z,8.74
2023-04-11T06:44:08.527Z,8.88
2023-04-11T06:46:10.430Z,8.81
2023-04-11T06:48:12.850Z,8.75
2023-04-11T06:50:14.526Z,8.65
2023-04-11T06:52:16.096Z,8.77
2023-04-11T06:54:19.354Z,8.82
2023-04-11T06:56:21.202Z,8.78
2023-04-11T06:58:22.769Z,8.68
2023-04-11T07:00:24.569Z,8.82
2023-04-11T07:02:26.492Z,8.86
2023-04-11T07:04:28.322Z,8.68
2023-04-11T07:06:30.531Z,8.54
2023-04-11T07:08:32.008Z,8.75
2023-04-11T07:10:33.642Z,8.73
2023-04-11T07:12:35.118Z,8.87
2023-04-11T07:14:36.565Z,8.71
2023-04-11T07:16:38.340Z,8.80
2023-04-11T07:18:39.917Z,8.81
2023-04-11T07:20:41.524Z,8.86
2023-04-11T07:22:43.394Z,8.72
2023-04-11T07:24:46.522Z,8.73
2023-04-11T07:26:51.146Z,8.77
2023-04-11T07:28:52.691Z,8.96
2023-04-11T07:30:54.162Z,8.97
2023-04-11T07:32:56.123Z,9.06
2023-04-11T07:34:57.675Z,9.10
2023-04-11T07:37:01.099Z,9.27
2023-04-11T07:39:04.502Z,9.34
2023-04-11T07:41:06.322Z,9.49
2023-04-11T07:43:07.837Z,9.42
2023-04-11T07:45:09.556Z,9.56
2023-04-11T07:47:11.197Z,9.51
2023-04-11T07:49:12.665Z,9.52
2023-04-11T07:51:14.137Z,9.47
2023-04-11T07:53:15.692Z,9.55
2023-04-11T07:55:17.352Z,9.49
2023-04-11T07:57:18.854Z,9.49
2023-04-11T07:59:20.378Z,9.39
2023-04-11T08:01:22.695Z,9.67
2023-04-11T08:03:24.636Z,9.65
2023-04-11T08:05:27.697Z,9.75
2023-04-11T08:07:29.184Z,9.83
2023-04-11T08:09:30.641Z,9.85
2023-04-11T08:11:32.299Z,9.78
2023-04-11T08:13:33.799Z,9.75
2023-04-11T08:15:36.971Z,9.78
2023-04-11T08:17:39.160Z,9.71
2023-04-11T08:19:40.960Z,9.73
2023-04-11T08:21:42.413Z,9.79
2023-04-11T08:23:43.930Z,9.93
2023-04-11T08:25:45.589Z,10.05
2023-04-11T08:27:47.030Z,9.95
2023-04-11T08:29:48.507Z,9.53
2023-04-11T08:31:50.097Z,9.60
2023-04-11T08:33:51.631Z,9.58
2023-04-11T08:35:53.569Z,9.32
2023-04-11T08:37:55.080Z,9.11
2023-04-11T08:39:57.061Z,9.05
2023-04-11T08:41:59.783Z,9.27
2023-04-11T08:44:01.536Z,9.60
2023-04-11T08:46:06.070Z,9.90
2023-04-11T08:48:08.257Z,9.72
2023-04-11T08:50:10.212Z,8.92
2023-04-11T08:52:11.670Z,8.96
2023-04-11T08:54:13.282Z,9.07
2023-04-11T08:56:16.325Z,9.29
2023-04-11T08:58:17.925Z,9.56
2023-04-11T09:00:23.481Z,9.09
2023-04-11T09:02:25.159Z,9.46
2023-04-11T09:04:28.681Z,9.76
2023-04-11T09:06:31.016Z,10.13
2023-04-11T09:08:37.994Z,10.18
2023-04-11T09:10:39.929Z,10.00
2023-04-11T09:12:41.423Z,10.21
2023-04-11T09:14:43.183Z,10.41
2023-04-11T09:17:00.832Z,10.58
2023-04-11T09:19:02.392Z,10.75
2023-04-11T09:21:04.762Z,10.77
2023-04-11T09:23:06.335Z,10.84
2023-04-11T09:25:07.995Z,11.11
2023-04-11T09:27:13.655Z,11.15
2023-04-11T09:29:36.123Z,11.64
2023-04-11T09:31:41.138Z,11.69
2023-04-11T09:33:55.433Z,11.43
2023-04-11T09:35:57.344Z,11.37
2023-04-11T09:37:59.183Z,10.22
2023-04-11T09:40:00.960Z,9.97
2023-04-11T09:42:03.329Z,10.19
2023-04-11T09:44:05.352Z,10.00
2023-04-11T09:46:10.324Z,10.29
2023-04-11T09:48:11.918Z,10.35
2023-04-11T09:50:13.541Z,10.06
2023-04-11T09:52:15.070Z,10.36
2023-04-11T09:54:16.632Z,10.34
2023-04-11T09:56:18.157Z,10.21
2023-04-11T09:58:19.627Z,9.93
2023-04-11T10:00:22.152Z,10.28
2023-04-11T10:02:23.698Z,10.56
2023-04-11T10:04:28.041Z,10.74
2023-04-11T10:06:34.399Z,11.04
2023-04-11T10:08:37.126Z,11.35
2023-04-11T10:10:38.627Z,11.72
2023-04-11T10:12:40.076Z,10.85
2023-04-11T10:14:41.826Z,10.35
2023-04-11T10:17:03.392Z,10.56
2023-04-11T10:19:04.841Z,10.78
2023-04-11T10:21:12.285Z,10.98
2023-04-11T10:23:14.101Z,11.40
2023-04-11T10:25:19.219Z,11.81
2023-04-11T10:27:40.665Z,11.39
2023-04-11T10:29:51.150Z,11.29
2023-04-11T10:32:08.595Z,11.34
2023-04-11T10:34:14.540Z,11.52
2023-04-11T10:36:16.207Z,12.05
2023-04-11T10:38:36.373Z,11.84
2023-04-11T10:40:37.858Z,12.19
2023-04-11T10:42:39.943Z,11.77
2023-04-11T10:44:41.473Z,11.62
2023-04-11T10:46:54.038Z,11.68
2023-04-11T10:48:56.765Z,11.61
2023-04-11T10:50:58.292Z,11.86
2023-04-11T10:53:03.499Z,12.29
2023-04-11T10:55:14.737Z,12.56
2023-04-11T10:57:16.373Z,11.62
2023-04-11T10:59:34.386Z,11.67
2023-04-11T11:03:54.847Z,12.22
2023-04-11T11:06:02.378Z,11.82
2023-04-11T11:08:03.843Z,11.50
2023-04-11T11:10:05.603Z,11.53
2023-04-11T11:12:11.129Z,11.81
2023-04-11T11:14:12.639Z,11.98
2023-04-11T11:16:18.625Z,12.05
2023-04-11T11:18:20.120Z,11.99
2023-04-11T11:20:21.805Z,11.33
2023-04-11T11:22:26.138Z,11.31
2023-04-11T11:24:27.751Z,11.07
2023-04-11T11:26:41.893Z,11.04
2023-04-11T11:28:47.234Z,11.09
2023-04-11T11:30:55.833Z,11.12
2023-04-11T11:32:57.536Z,11.38
2023-04-11T11:34:59.020Z,11.78
2023-04-11T11:37:01.872Z,12.00
2023-04-11T11:39:05.415Z,12.36
2023-04-11T11:41:06.956Z,12.41
2023-04-11T11:43:08.714Z,12.58
2023-04-11T11:45:16.788Z,12.66
2023-04-11T11:47:18.383Z,13.03
2023-04-11T11:49:19.854Z,13.26
2023-04-11T11:51:21.333Z,13.32
2023-04-11T11:53:22.838Z,13.21
2023-04-11T11:55:24.608Z,13.32
2023-04-11T11:57:26.162Z,13.47
2023-04-11T11:59:28.108Z,13.14
2023-04-11T12:01:29.598Z,13.10
2023-04-11T12:03:31.201Z,13.34
2023-04-11T12:05:33.602Z,13.52
2023-04-11T12:07:36.841Z,13.52
2023-04-11T12:09:38.356Z,13.55
2023-04-11T12:11:40.521Z,13.70
2023-04-11T12:13:42.075Z,13.70
2023-04-11T12:15:43.918Z,13.84
2023-04-11T12:17:49.827Z,13.61
2023-04-11T12:19:55.212Z,13.65
2023-04-11T12:21:56.628Z,13.33
2023-04-11T12:23:58.528Z,13.23
2023-04-11T12:26:00.767Z,13.13
2023-04-11T12:28:02.362Z,13.09
2023-04-11T12:30:06.934Z,13.20
2023-04-11T12:32:08.474Z,13.22
2023-04-11T12:34:09.987Z,13.20
2023-04-11T12:36:11.970Z,13.19
2023-04-11T12:38:16.621Z,13.02
2023-04-11T12:40:19.589Z,12.94
2023-04-11T12:42:23.938Z,12.90
2023-04-11T12:44:28.354Z,13.20
2023-04-11T12:46:30.201Z,13.47
2023-04-11T12:48:31.758Z,13.43
2023-04-11T12:50:33.260Z,13.09
2023-04-11T12:52:34.974Z,13.19
2023-04-11T12:54:36.664Z,12.60
2023-04-11T12:56:38.494Z,12.83
2023-04-11T12:58:40.062Z,13.04
2023-04-11T13:00:41.639Z,13.14
2023-04-11T13:02:45.270Z,13.07
2023-04-11T13:04:53.099Z,12.94
2023-04-11T13:06:54.950Z,12.97
2023-04-11T13:08:59.462Z,12.94
2023-04-11T13:11:01.012Z,12.63
2023-04-11T13:13:11.848Z,12.65
2023-04-11T13:15:19.357Z,12.41
2023-04-11T13:17:20.974Z,12.57
2023-04-11T13:19:22.813Z,12.69
2023-04-11T13:21:24.881Z,12.89
2023-04-11T13:23:26.329Z,12.57
2023-04-11T13:25:27.899Z,12.48
2023-04-11T13:27:29.471Z,12.61
2023-04-11T13:29:31.063Z,12.77
2023-04-11T13:31:32.684Z,12.80
2023-04-11T13:33:34.230Z,12.58
2023-04-11T13:35:35.706Z,12.45
2023-04-11T13:37:37.151Z,12.40
2023-04-11T13:39:38.642Z,12.23
2023-04-11T13:41:40.117Z,12.05
2023-04-11T13:43:41.729Z,12.33
2023-04-11T13:45:43.398Z,12.43
2023-04-11T13:47:45.123Z,12.27
2023-04-11T13:49:46.973Z,12.22
2023-04-11T13:51:48.766Z,12.02
2023-04-11T13:53:50.306Z,12.29
2023-04-11T13:55:51.804Z,12.41
2023-04-11T13:57:53.260Z,12.47
2023-04-11T13:59:54.782Z,12.36
2023-04-11T14:01:56.371Z,12.46
2023-04-11T14:03:58.213Z,12.66
2023-04-11T14:06:00.413Z,12.65
2023-04-11T14:08:01.925Z,12.58
2023-04-11T14:10:03.484Z,12.67
2023-04-11T14:12:05.053Z,12.62
2023-04-11T14:14:06.575Z,12.00
2023-04-11T14:16:09.516Z,11.96
2023-04-11T14:18:11.257Z,12.11
2023-04-11T14:20:12.786Z,12.23
2023-04-11T14:22:14.535Z,12.45
2023-04-11T14:24:16.117Z,12.40
2023-04-11T14:26:17.763Z,12.46
2023-04-11T14:28:19.615Z,12.42
2023-04-11T14:30:21.536Z,12.41
2023-04-11T14:32:23.127Z,12.52
2023-04-11T14:34:24.587Z,12.36
2023-04-11T14:36:28.141Z,12.49
2023-04-11T14:38:29.791Z,12.24
2023-04-11T14:40:31.310Z,12.52
2023-04-11T14:42:32.883Z,12.22
2023-04-11T14:44:35.579Z,12.10
2023-04-11T14:46:37.277Z,12.20
2023-04-11T14:48:38.888Z,12.33
2023-04-11T14:50:40.405Z,12.40
2023-04-11T14:52:42.012Z,12.52
2023-04-11T14:54:43.598Z,12.60
2023-04-11T14:56:45.073Z,12.64
2023-04-11T14:58:46.672Z,12.86
2023-04-11T15:00:48.210Z,12.56
2023-04-11T15:02:51.959Z,12.68
2023-04-11T15:04:53.836Z,12.69
2023-04-11T15:06:55.395Z,12.62
2023-04-11T15:08:57.017Z,12.69
2023-04-11T15:10:58.582Z,12.49
2023-04-11T15:13:00.139Z,12.62
2023-04-11T15:15:01.696Z,12.68
2023-04-11T15:17:03.269Z,12.77
2023-04-11T15:19:04.741Z,12.78
2023-04-11T15:21:06.531Z,12.32
2023-04-11T15:23:08.074Z,12.11
2023-04-11T15:25:11.580Z,12.20
2023-04-11T15:27:13.168Z,12.37
2023-04-11T15:29:15.900Z,12.42
2023-04-11T15:31:25.427Z,12.41
2023-04-11T15:33:27.810Z,12.39
2023-04-11T15:35:29.277Z,12.36
2023-04-11T15:37:30.925Z,12.24
2023-04-11T15:39:32.391Z,12.34
2023-04-11T15:41:34.399Z,12.39
2023-04-11T15:43:35.986Z,12.52
2023-04-11T15:45:38.158Z,12.68
2023-04-11T15:47:39.681Z,12.77
2023-04-11T15:49:41.412Z,12.38
2023-04-11T15:51:44.602Z,12.17
2023-04-11T15:53:46.158Z,12.31
2023-04-11T15:55:47.766Z,12.58
2023-04-11T15:57:49.712Z,12.61
2023-04-11T15:59:51.265Z,12.53
2023-04-11T16:01:52.846Z,12.44
2023-04-11T16:03:54.629Z,12.44
2023-04-11T16:05:56.266Z,12.33
2023-04-11T16:07:57.810Z,12.35
2023-04-11T16:09:59.335Z,12.21
2023-04-11T16:12:01.480Z,12.26
2023-04-11T16:14:03.544Z,12.18
2023-04-11T16:16:05.442Z,12.19
2023-04-11T16:18:07.254Z,12.09
2023-04-11T16:20:12.136Z,12.16
2023-04-11T16:22:13.826Z,11.98
2023-04-11T16:24:15.342Z,11.93
2023-04-11T16:26:16.902Z,11.81
2023-04-11T16:28:18.407Z,11.78
2023-04-11T16:30:19.961Z,11.74
2023-04-11T16:32:21.761Z,11.64
2023-04-11T16:34:24.007Z,11.66
2023-04-11T16:36:27.361Z,11.78
2023-04-11T16:38:28.798Z,11.74
2023-04-11T16:40:31.875Z,11.80
2023-04-11T16:42:33.403Z,11.82
2023-04-11T16:44:34.837Z,11.74
2023-04-11T16:46:36.440Z,11.74
2023-04-11T16:48:38.028Z,11.71
2023-04-11T16:50:39.970Z,11.67
2023-04-11T16:52:41.563Z,11.66
2023-04-11T16:54:43.150Z,11.60
2023-04-11T16:56:44.634Z,11.62
2023-04-11T16:58:46.250Z,11.66
2023-04-11T17:00:49.274Z,11.72
2023-04-11T17:02:50.979Z,11.63
2023-04-11T17:04:52.949Z,11.66
2023-04-11T17:06:56.108Z,11.65
2023-04-11T17:08:57.798Z,11.51
2023-04-11T17:11:09.320Z,11.48
2023-04-11T17:13:11.956Z,11.44
2023-04-11T17:15:13.433Z,11.38
2023-04-11T17:17:14.990Z,11.33
2023-04-11T17:19:16.579Z,11.36
2023-04-11T17:21:18.141Z,11.39
2023-04-11T17:23:26.248Z,11.31
2023-04-11T17:25:33.571Z,11.33
2023-04-11T17:27:35.034Z,11.38
2023-04-11T17:29:36.790Z,11.37
2023-04-11T17:31:38.609Z,11.34
2023-04-11T17:33:40.306Z,11.32
2023-04-11T17:35:42.010Z,11.32
2023-04-11T17:37:43.516Z,11.28
2023-04-11T17:39:46.038Z,11.40
2023-04-11T17:41:48.073Z,11.42
2023-04-11T17:43:49.625Z,11.41
2023-04-11T17:45:51.192Z,11.38
2023-04-11T17:47:52.714Z,11.35
2023-04-11T17:49:54.998Z,11.31
2023-04-11T17:51:59.198Z,11.27
2023-04-11T17:54:01.255Z,11.21
2023-04-11T17:56:04.534Z,11.28
2023-04-11T17:58:06.144Z,11.26
2023-04-11T18:00:19.397Z,11.11
2023-04-11T18:02:21.012Z,11.20
2023-04-11T18:04:23.263Z,11.15
2023-04-11T18:06:28.015Z,11.15
2023-04-11T18:08:46.762Z,11.17
2023-04-11T18:10:51.679Z,11.13
2023-04-11T18:12:53.633Z,11.09
2023-04-11T18:14:56.872Z,11.12
2023-04-11T18:16:58.339Z,11.17
2023-04-11T18:18:59.872Z,11.14
2023-04-11T18:21:06.680Z,11.13
2023-04-11T18:23:08.900Z,11.15
2023-04-11T18:25:10.539Z,11.01
2023-04-11T18:27:12.313Z,11.07
2023-04-11T18:29:14.024Z,11.10
2023-04-11T18:31:15.667Z,11.14
2023-04-11T18:33:19.013Z,11.18
2023-04-11T18:35:23.585Z,11.15
2023-04-11T18:37:27.950Z,11.04
2023-04-11T18:39:29.545Z,11.06
2023-04-11T18:41:31.292Z,10.98
2023-04-11T18:43:32.946Z,11.05
2023-04-11T18:45:34.637Z,10.98
2023-04-11T18:47:36.465Z,11.05
2023-04-11T18:49:38.130Z,10.92
2023-04-11T18:51:39.738Z,10.89
2023-04-11T18:53:41.758Z,10.93
2023-04-11T18:55:43.254Z,10.94
2023-04-11T18:57:47.382Z,10.91
2023-04-11T18:59:51.101Z,10.89
2023-04-11T19:01:53.424Z,10.99
2023-04-11T19:03:57.016Z,11.01
2023-04-11T19:05:59.359Z,10.88
2023-04-11T19:08:01.060Z,10.98
2023-04-11T19:10:02.545Z,11.01
2023-04-11T19:12:04.325Z,11.05
2023-04-11T19:14:06.266Z,10.95
2023-04-11T19:16:07.813Z,10.95
2023-04-11T19:18:17.007Z,10.96
2023-04-11T19:20:20.213Z,10.92
2023-04-11T19:22:21.750Z,10.94
2023-04-11T19:24:23.278Z,10.92
2023-04-11T19:26:28.427Z,10.94
2023-04-11T19:28:29.995Z,11.01
2023-04-11T19:30:31.874Z,10.98
2023-04-11T19:32:36.119Z,10.96
2023-04-11T19:34:37.747Z,10.93
2023-04-11T19:36:39.264Z,10.87
2023-04-11T19:38:41.018Z,10.92
2023-04-11T19:40:42.676Z,10.82
2023-04-11T19:42:44.580Z,10.81
2023-04-11T19:44:46.101Z,10.78
2023-04-11T19:46:47.606Z,10.79
2023-04-11T19:48:49.167Z,10.78
2023-04-11T19:50:51.501Z,10.65
2023-04-11T19:52:54.414Z,10.66
2023-04-11T19:54:56.615Z,10.62
2023-04-11T19:56:58.323Z,10.57
2023-04-11T19:58:59.883Z,10.60
2023-04-11T20:01:01.891Z,10.60
2023-04-11T20:03:05.916Z,10.52
2023-04-11T20:05:08.700Z,10.47
2023-04-11T20:07:10.402Z,10.50
2023-04-11T20:09:11.998Z,10.51
2023-04-11T20:11:16.503Z,10.49
2023-04-11T20:13:18.060Z,10.48
2023-04-11T20:15:19.524Z,10.34
2023-04-11T20:17:21.073Z,10.31
2023-04-11T20:19:27.616Z,10.22
2023-04-11T20:21:29.087Z,10.23
2023-04-11T20:23:33.558Z,10.20
2023-04-11T20:25:35.034Z,10.25
2023-04-11T20:27:36.863Z,10.26
2023-04-11T20:29:38.457Z,10.20
2023-04-11T20:31:39.976Z,10.29
2023-04-11T20:33:41.537Z,10.27
2023-04-11T20:35:43.274Z,10.27
2023-04-11T20:37:44.952Z,10.15
2023-04-11T20:39:46.431Z,10.26
2023-04-11T20:41:49.875Z,10.32
2023-04-11T20:43:52.146Z,10.24
2023-04-11T20:45:53.849Z,10.23
2023-04-11T20:47:56.380Z,10.15
2023-04-11T20:50:04.136Z,10.03
2023-04-11T20:52:05.734Z,10.04
2023-04-11T20:54:07.329Z,10.05
2023-04-11T20:56:08.847Z,10.03
2023-04-11T20:58:11.954Z,10.00
2023-04-11T21:00:17.760Z,10.05
2023-04-11T21:02:19.436Z,10.02
2023-04-11T21:04:22.159Z,9.93
2023-04-11T21:06:23.820Z,9.99
2023-04-11T21:08:25.308Z,9.99
2023-04-11T21:10:26.867Z,9.97
2023-04-11T21:12:28.449Z,10.02
2023-04-11T21:14:32.932Z,9.99
2023-04-11T21:16:34.438Z,9.94
2023-04-11T21:18:35.936Z,9.83
2023-04-11T21:20:39.009Z,9.91
2023-04-11T21:22:40.480Z,9.92
2023-04-11T21:24:41.993Z,9.96
2023-04-11T21:26:43.663Z,9.95
2023-04-11T21:28:45.104Z,9.88
2023-04-11T21:30:46.675Z,9.84
2023-04-11T21:32:48.203Z,9.83
2023-04-11T21:34:49.721Z,9.81
2023-04-11T21:36:51.298Z,9.83
2023-04-11T21:38:52.866Z,9.84
2023-04-11T21:40:54.361Z,9.90
2023-04-11T21:42:56.126Z,9.96
2023-04-11T21:44:57.707Z,10.00
2023-04-11T21:46:59.770Z,10.04
2023-04-11T21:49:01.304Z,10.08
2023-04-11T21:51:03.598Z,10.03
2023-04-11T21:53:05.418Z,10.00
2023-04-11T21:55:08.841Z,10.01
2023-04-11T21:57:11.267Z,9.94
2023-04-11T21:59:12.783Z,9.91
2023-04-11T22:01:15.413Z,9.96
2023-04-11T22:03:20.032Z,9.95
2023-04-11T22:05:22.019Z,9.95
2023-04-11T22:07:26.543Z,9.97
2023-04-11T22:09:28.096Z,10.05
2023-04-11T22:11:29.767Z,10.00
2023-04-11T22:13:31.377Z,10.01
2023-04-11T22:15:33.349Z,9.99
2023-04-11T22:17:34.923Z,9.97
2023-04-11T22:19:36.432Z,9.95
2023-04-11T22:21:38.440Z,10.01
2023-04-11T22:23:42.853Z,10.01
2023-04-11T22:25:44.337Z,10.04
2023-04-11T22:27:45.815Z,9.98
2023-04-11T22:29:47.408Z,9.90
2023-04-11T22:31:50.399Z,9.88
2023-04-11T22:33:52.088Z,9.99
2023-04-11T22:35:53.622Z,9.92
2023-04-11T22:37:59.206Z,10.00
2023-04-11T22:40:00.846Z,10.01
2023-04-11T22:42:02.384Z,9.84
2023-04-11T22:44:04.075Z,9.97
2023-04-11T22:46:05.776Z,9.87
2023-04-11T22:48:07.394Z,9.88
2023-04-11T22:50:10.149Z,9.86
2023-04-11T22:52:15.080Z,9.86
2023-04-11T22:54:16.708Z,9.83
2023-04-11T22:58:37.926Z,9.79
2023-04-11T23:00:39.615Z,9.85
2023-04-11T23:02:41.218Z,9.90
2023-04-11T23:04:42.909Z,9.92
2023-04-11T23:06:44.622Z,9.72
2023-04-11T23:08:46.663Z,9.75
2023-04-11T23:10:48.159Z,9.81
2023-04-11T23:12:49.755Z,9.79
2023-04-11T23:14:53.242Z,9.82
2023-04-11T23:16:54.804Z,9.81
2023-04-11T23:18:56.334Z,9.75
2023-04-11T23:20:58.265Z,9.73
2023-04-11T23:22:59.781Z,9.75
2023-04-11T23:25:01.360Z,9.77
2023-04-11T23:27:02.867Z,9.77
2023-04-11T23:29:04.488Z,9.81
2023-04-11T23:31:06.259Z,9.77
2023-04-11T23:33:09.001Z,9.70
2023-04-11T23:35:10.956Z,9.70
2023-04-11T23:37:12.966Z,9.72
2023-04-11T23:39:14.722Z,9.70
2023-04-11T23:41:16.225Z,9.69
2023-04-11T23:43:17.756Z,9.76
2023-04-11T23:45:22.586Z,9.82
2023-04-11T23:47:24.138Z,9.80
2023-04-11T23:49:25.851Z,9.82
2023-04-11T23:51:27.354Z,9.81
2023-04-11T23:53:28.825Z,9.84
2023-04-11T23:55:32.253Z,9.85
2023-04-11T23:57:33.781Z,9.81
2023-04-11T23:59:36.208Z,9.83
